St Solene — FVDG — position and weather

sailwx.info

Track history (hours):
 
Tides and Currents Weather Stations Pressure Air Temp Water Temp Dewpoint Dewpoint Depression Visibility Wind Speed Wind Dir Waves Ship Positions

St Solene

Last reported at 2017-Dec-15 02:22 UTC. Time now 2017-Dec-15 08:16 UTC.
Position N 43°07' E 009°11'.

Length 104 m; draft 5.4 m.

Type: Ship (hazmat cat A). MMSI: 226302000.

Date/timePositionNaut miles runAvg speedWind from/ knotsBaromVisibWave heightAir tempDewpointWater temp
2017-Dec-15 02:22N 43°07' E 009°11'15 7.0
2017-Dec-15 00:12N 43°08' E 009°31'  
2017-Dec-12 11:51N 43°03' E 009°35'411.1
2017-Dec-12 11:27N 43°07' E 009°32'510.9
2017-Dec-12 11:00N 43°12' E 009°29'5 9.4
2017-Dec-12 10:31N 43°14' E 009°23'611.8
2017-Dec-12 10:00N 43°12' E 009°16'612.2
2017-Dec-12 09:31N 43°11' E 009°07'181 9.4
2017-Dec-11 14:20N 43°15' E 004°60'2 6.9
2017-Dec-11 13:59N 43°18' E 004°59'3 6.7
2017-Dec-11 13:30N 43°21' E 004°58'3 6.9
2017-Dec-11 13:00N 43°24' E 004°55'2 4.7
2017-Dec-11 12:30N 43°26' E 004°54'0 0.1
2017-Dec-11 12:00N 43°26' E 004°54'0 0.0
2017-Dec-11 11:29N 43°26' E 004°54'0 0.0
2017-Dec-11 10:59N 43°26' E 004°54'0 0.0
2017-Dec-11 10:29N 43°26' E 004°54'0 0.0
2017-Dec-11 09:59N 43°26' E 004°54'0 0.0
2017-Dec-11 09:29N 43°26' E 004°54'0 0.0
2017-Dec-11 08:50N 43°26' E 004°54'0 0.0
2017-Dec-11 08:29N 43°26' E 004°54'0 0.0
2017-Dec-11 07:56N 43°26' E 004°54'0 0.0
2017-Dec-11 07:29N 43°26' E 004°54'0 0.0
2017-Dec-11 06:59N 43°26' E 004°54'0 0.0
2017-Dec-11 06:29N 43°26' E 004°54'0 0.0
2017-Dec-11 05:59N 43°26' E 004°54'0 0.0
2017-Dec-11 05:29N 43°26' E 004°54'0 0.0
2017-Dec-11 04:59N 43°26' E 004°54'0 0.0
2017-Dec-11 04:29N 43°26' E 004°54'0 0.0
2017-Dec-11 03:59N 43°26' E 004°54'0 0.0
2017-Dec-11 03:29N 43°26' E 004°54'0 0.0
2017-Dec-11 02:59N 43°26' E 004°54'0 0.0
2017-Dec-11 02:29N 43°26' E 004°54'0 0.0
2017-Dec-11 01:59N 43°26' E 004°54'0 0.0
2017-Dec-11 01:26N 43°26' E 004°54'0 0.0
2017-Dec-11 00:59N 43°26' E 004°54'0 0.0
2017-Dec-11 00:29N 43°26' E 004°54'0 0.0
2017-Dec-10 23:59N 43°26' E 004°54'0 0.0
2017-Dec-10 23:29N 43°26' E 004°54'0 0.0
2017-Dec-10 22:59N 43°26' E 004°54'0 0.0
2017-Dec-10 22:29N 43°26' E 004°54'0 0.0
2017-Dec-10 21:59N 43°26' E 004°54'0 0.0
2017-Dec-10 21:29N 43°26' E 004°54'0 0.0
2017-Dec-10 20:59N 43°26' E 004°54'0 0.0
2017-Dec-10 20:29N 43°26' E 004°54'0 0.0
2017-Dec-10 19:59N 43°26' E 004°54'0 0.0
2017-Dec-10 19:29N 43°26' E 004°54'0 0.0
2017-Dec-10 18:59N 43°26' E 004°54'0 0.0
2017-Dec-10 18:29N 43°26' E 004°54'0 0.0
2017-Dec-10 17:59N 43°26' E 004°54'0 0.0
2017-Dec-10 17:29N 43°26' E 004°54'0 0.0
2017-Dec-10 16:59N 43°26' E 004°54'0 0.0
2017-Dec-10 16:29N 43°26' E 004°54'0 0.0
2017-Dec-10 15:56N 43°26' E 004°54'1 2.2
2017-Dec-10 15:30N 43°25' E 004°53'1 2.8
2017-Dec-10 14:59N 43°24' E 004°55'0 0.1
2017-Dec-10 14:29N 43°24' E 004°55'0 0.0
2017-Dec-10 13:59N 43°24' E 004°55'0 0.1
2017-Dec-10 13:26N 43°24' E 004°55'0 0.1
2017-Dec-10 12:56N 43°24' E 004°55'0 0.1
2017-Dec-10 12:29N 43°24' E 004°55'0 0.0
2017-Dec-10 11:59N 43°24' E 004°55'0 0.1
2017-Dec-10 11:29N 43°24' E 004°55'0 0.0
2017-Dec-10 10:56N 43°24' E 004°55'0 0.0
2017-Dec-10 10:29N 43°24' E 004°55'0 0.1
2017-Dec-10 09:59N 43°24' E 004°55'0 0.0
2017-Dec-10 09:29N 43°24' E 004°55'0 0.0
2017-Dec-10 08:59N 43°24' E 004°55'0 0.0
2017-Dec-10 08:29N 43°24' E 004°55'0 0.0
2017-Dec-10 07:59N 43°24' E 004°55'0 0.0
2017-Dec-10 07:29N 43°24' E 004°55'0 0.0
2017-Dec-10 06:59N 43°24' E 004°55'0 0.0
2017-Dec-10 06:29N 43°24' E 004°55'0 0.0
2017-Dec-10 05:59N 43°24' E 004°55'0 0.0
2017-Dec-10 05:29N 43°24' E 004°55'0 0.0
2017-Dec-10 04:59N 43°24' E 004°55'0 0.0
2017-Dec-10 04:29N 43°24' E 004°55'0 0.0
2017-Dec-10 03:59N 43°24' E 004°55'0 0.0
2017-Dec-10 03:29N 43°24' E 004°55'0 0.0
2017-Dec-10 02:59N 43°24' E 004°55'0 0.0
2017-Dec-10 02:29N 43°24' E 004°55'0 0.1
2017-Dec-10 01:59N 43°24' E 004°55'0 0.0
2017-Dec-10 01:26N 43°24' E 004°55'0 0.1
2017-Dec-10 00:59N 43°24' E 004°55'0 0.1
2017-Dec-10 00:29N 43°24' E 004°55'0 0.0
2017-Dec-09 23:59N 43°24' E 004°55'0 0.1
2017-Dec-09 23:29N 43°24' E 004°55'0 0.0
2017-Dec-09 22:59N 43°24' E 004°55'0 0.0
2017-Dec-09 22:29N 43°24' E 004°55'0 0.0
2017-Dec-09 21:59N 43°24' E 004°55'0 0.0
2017-Dec-09 21:29N 43°24' E 004°55'0 0.0
2017-Dec-09 20:59N 43°24' E 004°55'0 0.0
2017-Dec-09 20:29N 43°24' E 004°55'0 0.0
2017-Dec-09 19:59N 43°24' E 004°55'0 0.0
2017-Dec-09 19:29N 43°24' E 004°55'0 0.1
2017-Dec-09 18:59N 43°24' E 004°55'0 0.0
2017-Dec-09 18:29N 43°24' E 004°55'0 0.0
2017-Dec-09 17:59N 43°24' E 004°55'0 0.0
2017-Dec-09 17:26N 43°24' E 004°55'0 0.0
2017-Dec-09 16:59N 43°24' E 004°55'0 0.0
2017-Dec-09 16:29N 43°24' E 004°55'0 0.0
2017-Dec-09 15:59N 43°24' E 004°55'0 0.0
2017-Dec-09 15:29N 43°24' E 004°55'0 0.0
2017-Dec-09 14:59N 43°24' E 004°55'0 0.0
2017-Dec-09 14:29N 43°24' E 004°55'0 0.0
2017-Dec-09 13:59N 43°24' E 004°55'0 0.0
2017-Dec-09 13:29N 43°24' E 004°55'0 0.0
2017-Dec-09 12:59N 43°24' E 004°55'0 0.0
2017-Dec-09 12:29N 43°24' E 004°55'0 0.1
2017-Dec-09 11:59N 43°24' E 004°55'0 0.0
2017-Dec-09 11:29N 43°24' E 004°55'0 0.0
2017-Dec-09 10:59N 43°24' E 004°55'0 0.0
2017-Dec-09 10:29N 43°24' E 004°55'0 0.0
2017-Dec-09 09:59N 43°24' E 004°55'0 0.0
2017-Dec-09 09:26N 43°24' E 004°55'0 0.0
2017-Dec-09 08:59N 43°24' E 004°55'0 0.0
2017-Dec-09 08:29N 43°24' E 004°55'0 0.0
2017-Dec-09 07:59N 43°24' E 004°55'0 0.1
2017-Dec-09 07:29N 43°24' E 004°55'0 0.2
2017-Dec-09 07:00N 43°24' E 004°55'3 6.7
2017-Dec-09 06:31N 43°22' E 004°58'4 8.0
2017-Dec-09 06:00N 43°18' E 004°60'5 9.6
2017-Dec-09 05:28N 43°13' E 005°02'4 8.8
2017-Dec-09 05:01N 43°10' E 004°59'610.2
2017-Dec-09 04:28N 43°07' E 004°53'511.3
2017-Dec-09 04:01N 43°07' E 004°46'611.2
2017-Dec-09 03:31N 43°06' E 004°38'1 0.0
2017-Dec-08 00:30N 43°06' E 004°39'612.5
2017-Dec-08 00:00N 43°07' E 004°48'2 2.1
2017-Dec-07 23:11N 43°07' E 004°50'0 1.1
2017-Dec-07 22:59N 43°07' E 004°50'3 5.7
2017-Dec-07 22:30N 43°08' E 004°54'712.4
2017-Dec-07 21:59N 43°12' E 005°01'612.7
2017-Dec-07 21:30N 43°18' E 004°59'611.6
2017-Dec-07 21:00N 43°23' E 004°56'3 5.4
2017-Dec-07 20:30N 43°25' E 004°53'0 0.0
2017-Dec-07 20:00N 43°25' E 004°53'0 0.0
2017-Dec-07 19:30N 43°25' E 004°53'0 0.0
2017-Dec-07 19:00N 43°25' E 004°53'0 0.0
2017-Dec-07 18:30N 43°25' E 004°53'0 0.0
2017-Dec-07 18:00N 43°25' E 004°53'0 0.0
2017-Dec-07 17:30N 43°25' E 004°53'0 0.0
2017-Dec-07 17:00N 43°25' E 004°53'0 0.0
2017-Dec-07 16:30N 43°25' E 004°53'0 0.0
2017-Dec-07 16:00N 43°25' E 004°53'0 0.0
2017-Dec-07 15:30N 43°25' E 004°53'0 0.0
2017-Dec-07 15:00N 43°25' E 004°53'0 0.0
2017-Dec-07 14:30N 43°25' E 004°53'0 0.0
2017-Dec-07 14:00N 43°25' E 004°53'0 0.0
2017-Dec-07 13:30N 43°25' E 004°53'0 0.0
2017-Dec-07 13:00N 43°25' E 004°53'0 0.0
2017-Dec-07 12:30N 43°25' E 004°53'0 0.0
2017-Dec-07 12:00N 43°25' E 004°53'0 0.0
2017-Dec-07 11:30N 43°25' E 004°53'0 0.0
2017-Dec-07 11:00N 43°25' E 004°53'0 0.0
2017-Dec-07 10:30N 43°25' E 004°53'0 0.0
2017-Dec-07 10:00N 43°25' E 004°53'0 0.0
2017-Dec-07 09:30N 43°25' E 004°53'0 0.0
2017-Dec-07 09:00N 43°25' E 004°53'0 0.0
2017-Dec-07 08:30N 43°25' E 004°53'0 0.0
2017-Dec-07 07:57N 43°25' E 004°53'0 0.0
2017-Dec-07 07:30N 43°25' E 004°53'0 0.0
2017-Dec-07 07:00N 43°25' E 004°53'0 0.0
2017-Dec-07 06:30N 43°25' E 004°53'0 0.0
2017-Dec-07 06:00N 43°25' E 004°53'0 0.0
2017-Dec-07 05:30N 43°25' E 004°53'0 0.0
2017-Dec-07 05:00N 43°25' E 004°53'0 0.0
2017-Dec-07 04:30N 43°25' E 004°53'0 0.0
2017-Dec-07 04:00N 43°25' E 004°53'0 0.0
2017-Dec-07 03:30N 43°25' E 004°53'0 0.0
2017-Dec-07 03:00N 43°25' E 004°53'0 0.0
2017-Dec-07 02:30N 43°25' E 004°53'0 0.0
2017-Dec-07 01:57N 43°25' E 004°53'0 0.0
2017-Dec-07 01:30N 43°25' E 004°53'0 0.0
2017-Dec-07 01:00N 43°25' E 004°53'1 1.6
2017-Dec-07 00:31N 43°24' E 004°53'1 2.7
2017-Dec-06 23:59N 43°24' E 004°55'0 0.0
2017-Dec-06 23:29N 43°24' E 004°55'0 0.0
2017-Dec-06 22:53N 43°24' E 004°55'0 0.0
2017-Dec-06 22:29N 43°24' E 004°55'0 0.0
2017-Dec-06 21:56N 43°24' E 004°55'0 0.1
2017-Dec-06 21:29N 43°24' E 004°56'0 0.1
2017-Dec-06 20:59N 43°24' E 004°56'  
Track history (hours):
 
Tides and Currents Weather Stations Pressure Air Temp Water Temp Dewpoint Dewpoint Depression Visibility Wind Speed Wind Dir Waves Ship Positions

St Solene

Last reported at 2017-Dec-15 02:22 UTC. Time now 2017-Dec-15 08:16 UTC.
Position N 43°07' E 009°11'.

Length 104 m; draft 5.4 m.

Type: Ship (hazmat cat A). MMSI: 226302000.

Date/timePositionNaut miles runAvg speedWind from/ knotsBaromVisibWave heightAir tempDewpointWater temp
2017-Dec-15 02:22N 43°07' E 009°11'15 7.0
2017-Dec-15 00:12N 43°08' E 009°31'  
2017-Dec-12 11:51N 43°03' E 009°35'411.1
2017-Dec-12 11:27N 43°07' E 009°32'510.9
2017-Dec-12 11:00N 43°12' E 009°29'5 9.4
2017-Dec-12 10:31N 43°14' E 009°23'611.8
2017-Dec-12 10:00N 43°12' E 009°16'612.2
2017-Dec-12 09:31N 43°11' E 009°07'181 9.4
2017-Dec-11 14:20N 43°15' E 004°60'2 6.9
2017-Dec-11 13:59N 43°18' E 004°59'3 6.7
2017-Dec-11 13:30N 43°21' E 004°58'3 6.9
2017-Dec-11 13:00N 43°24' E 004°55'2 4.7
2017-Dec-11 12:30N 43°26' E 004°54'0 0.1
2017-Dec-11 12:00N 43°26' E 004°54'0 0.0
2017-Dec-11 11:29N 43°26' E 004°54'0 0.0
2017-Dec-11 10:59N 43°26' E 004°54'0 0.0
2017-Dec-11 10:29N 43°26' E 004°54'0 0.0
2017-Dec-11 09:59N 43°26' E 004°54'0 0.0
2017-Dec-11 09:29N 43°26' E 004°54'0 0.0
2017-Dec-11 08:50N 43°26' E 004°54'0 0.0
2017-Dec-11 08:29N 43°26' E 004°54'0 0.0
2017-Dec-11 07:56N 43°26' E 004°54'0 0.0
2017-Dec-11 07:29N 43°26' E 004°54'0 0.0
2017-Dec-11 06:59N 43°26' E 004°54'0 0.0
2017-Dec-11 06:29N 43°26' E 004°54'0 0.0
2017-Dec-11 05:59N 43°26' E 004°54'0 0.0
2017-Dec-11 05:29N 43°26' E 004°54'0 0.0
2017-Dec-11 04:59N 43°26' E 004°54'0 0.0
2017-Dec-11 04:29N 43°26' E 004°54'0 0.0
2017-Dec-11 03:59N 43°26' E 004°54'0 0.0
2017-Dec-11 03:29N 43°26' E 004°54'0 0.0
2017-Dec-11 02:59N 43°26' E 004°54'0 0.0
2017-Dec-11 02:29N 43°26' E 004°54'0 0.0
2017-Dec-11 01:59N 43°26' E 004°54'0 0.0
2017-Dec-11 01:26N 43°26' E 004°54'0 0.0
2017-Dec-11 00:59N 43°26' E 004°54'0 0.0
2017-Dec-11 00:29N 43°26' E 004°54'0 0.0
2017-Dec-10 23:59N 43°26' E 004°54'0 0.0
2017-Dec-10 23:29N 43°26' E 004°54'0 0.0
2017-Dec-10 22:59N 43°26' E 004°54'0 0.0
2017-Dec-10 22:29N 43°26' E 004°54'0 0.0
2017-Dec-10 21:59N 43°26' E 004°54'0 0.0
2017-Dec-10 21:29N 43°26' E 004°54'0 0.0
2017-Dec-10 20:59N 43°26' E 004°54'0 0.0
2017-Dec-10 20:29N 43°26' E 004°54'0 0.0
2017-Dec-10 19:59N 43°26' E 004°54'0 0.0
2017-Dec-10 19:29N 43°26' E 004°54'0 0.0
2017-Dec-10 18:59N 43°26' E 004°54'0 0.0
2017-Dec-10 18:29N 43°26' E 004°54'0 0.0
2017-Dec-10 17:59N 43°26' E 004°54'0 0.0
2017-Dec-10 17:29N 43°26' E 004°54'0 0.0
2017-Dec-10 16:59N 43°26' E 004°54'0 0.0
2017-Dec-10 16:29N 43°26' E 004°54'0 0.0
2017-Dec-10 15:56N 43°26' E 004°54'1 2.2
2017-Dec-10 15:30N 43°25' E 004°53'1 2.8
2017-Dec-10 14:59N 43°24' E 004°55'0 0.1
2017-Dec-10 14:29N 43°24' E 004°55'0 0.0
2017-Dec-10 13:59N 43°24' E 004°55'0 0.1
2017-Dec-10 13:26N 43°24' E 004°55'0 0.1
2017-Dec-10 12:56N 43°24' E 004°55'0 0.1
2017-Dec-10 12:29N 43°24' E 004°55'0 0.0
2017-Dec-10 11:59N 43°24' E 004°55'0 0.1
2017-Dec-10 11:29N 43°24' E 004°55'0 0.0
2017-Dec-10 10:56N 43°24' E 004°55'0 0.0
2017-Dec-10 10:29N 43°24' E 004°55'0 0.1
2017-Dec-10 09:59N 43°24' E 004°55'0 0.0
2017-Dec-10 09:29N 43°24' E 004°55'0 0.0
2017-Dec-10 08:59N 43°24' E 004°55'0 0.0
2017-Dec-10 08:29N 43°24' E 004°55'0 0.0
2017-Dec-10 07:59N 43°24' E 004°55'0 0.0
2017-Dec-10 07:29N 43°24' E 004°55'0 0.0
2017-Dec-10 06:59N 43°24' E 004°55'0 0.0
2017-Dec-10 06:29N 43°24' E 004°55'0 0.0
2017-Dec-10 05:59N 43°24' E 004°55'0 0.0
2017-Dec-10 05:29N 43°24' E 004°55'0 0.0
2017-Dec-10 04:59N 43°24' E 004°55'0 0.0
2017-Dec-10 04:29N 43°24' E 004°55'0 0.0
2017-Dec-10 03:59N 43°24' E 004°55'0 0.0
2017-Dec-10 03:29N 43°24' E 004°55'0 0.0
2017-Dec-10 02:59N 43°24' E 004°55'0 0.0
2017-Dec-10 02:29N 43°24' E 004°55'0 0.1
2017-Dec-10 01:59N 43°24' E 004°55'0 0.0
2017-Dec-10 01:26N 43°24' E 004°55'0 0.1
2017-Dec-10 00:59N 43°24' E 004°55'0 0.1
2017-Dec-10 00:29N 43°24' E 004°55'0 0.0
2017-Dec-09 23:59N 43°24' E 004°55'0 0.1
2017-Dec-09 23:29N 43°24' E 004°55'0 0.0
2017-Dec-09 22:59N 43°24' E 004°55'0 0.0
2017-Dec-09 22:29N 43°24' E 004°55'0 0.0
2017-Dec-09 21:59N 43°24' E 004°55'0 0.0
2017-Dec-09 21:29N 43°24' E 004°55'0 0.0
2017-Dec-09 20:59N 43°24' E 004°55'0 0.0
2017-Dec-09 20:29N 43°24' E 004°55'0 0.0
2017-Dec-09 19:59N 43°24' E 004°55'0 0.0
2017-Dec-09 19:29N 43°24' E 004°55'0 0.1
2017-Dec-09 18:59N 43°24' E 004°55'0 0.0
2017-Dec-09 18:29N 43°24' E 004°55'0 0.0
2017-Dec-09 17:59N 43°24' E 004°55'0 0.0
2017-Dec-09 17:26N 43°24' E 004°55'0 0.0
2017-Dec-09 16:59N 43°24' E 004°55'0 0.0
2017-Dec-09 16:29N 43°24' E 004°55'0 0.0
2017-Dec-09 15:59N 43°24' E 004°55'0 0.0
2017-Dec-09 15:29N 43°24' E 004°55'0 0.0
2017-Dec-09 14:59N 43°24' E 004°55'0 0.0
2017-Dec-09 14:29N 43°24' E 004°55'0 0.0
2017-Dec-09 13:59N 43°24' E 004°55'0 0.0
2017-Dec-09 13:29N 43°24' E 004°55'0 0.0
2017-Dec-09 12:59N 43°24' E 004°55'0 0.0
2017-Dec-09 12:29N 43°24' E 004°55'0 0.1
2017-Dec-09 11:59N 43°24' E 004°55'0 0.0
2017-Dec-09 11:29N 43°24' E 004°55'0 0.0
2017-Dec-09 10:59N 43°24' E 004°55'0 0.0
2017-Dec-09 10:29N 43°24' E 004°55'0 0.0
2017-Dec-09 09:59N 43°24' E 004°55'0 0.0
2017-Dec-09 09:26N 43°24' E 004°55'0 0.0
2017-Dec-09 08:59N 43°24' E 004°55'0 0.0
2017-Dec-09 08:29N 43°24' E 004°55'0 0.0
2017-Dec-09 07:59N 43°24' E 004°55'0 0.1
2017-Dec-09 07:29N 43°24' E 004°55'0 0.2
2017-Dec-09 07:00N 43°24' E 004°55'3 6.7
2017-Dec-09 06:31N 43°22' E 004°58'4 8.0
2017-Dec-09 06:00N 43°18' E 004°60'5 9.6
2017-Dec-09 05:28N 43°13' E 005°02'4 8.8
2017-Dec-09 05:01N 43°10' E 004°59'610.2
2017-Dec-09 04:28N 43°07' E 004°53'511.3
2017-Dec-09 04:01N 43°07' E 004°46'611.2
2017-Dec-09 03:31N 43°06' E 004°38'1 0.0
2017-Dec-08 00:30N 43°06' E 004°39'612.5
2017-Dec-08 00:00N 43°07' E 004°48'2 2.1
2017-Dec-07 23:11N 43°07' E 004°50'0 1.1
2017-Dec-07 22:59N 43°07' E 004°50'3 5.7
2017-Dec-07 22:30N 43°08' E 004°54'712.4
2017-Dec-07 21:59N 43°12' E 005°01'612.7
2017-Dec-07 21:30N 43°18' E 004°59'611.6
2017-Dec-07 21:00N 43°23' E 004°56'3 5.4
2017-Dec-07 20:30N 43°25' E 004°53'0 0.0
2017-Dec-07 20:00N 43°25' E 004°53'0 0.0
2017-Dec-07 19:30N 43°25' E 004°53'0 0.0
2017-Dec-07 19:00N 43°25' E 004°53'0 0.0
2017-Dec-07 18:30N 43°25' E 004°53'0 0.0
2017-Dec-07 18:00N 43°25' E 004°53'0 0.0
2017-Dec-07 17:30N 43°25' E 004°53'0 0.0
2017-Dec-07 17:00N 43°25' E 004°53'0 0.0
2017-Dec-07 16:30N 43°25' E 004°53'0 0.0
2017-Dec-07 16:00N 43°25' E 004°53'0 0.0
2017-Dec-07 15:30N 43°25' E 004°53'0 0.0
2017-Dec-07 15:00N 43°25' E 004°53'0 0.0
2017-Dec-07 14:30N 43°25' E 004°53'0 0.0
2017-Dec-07 14:00N 43°25' E 004°53'0 0.0
2017-Dec-07 13:30N 43°25' E 004°53'0 0.0
2017-Dec-07 13:00N 43°25' E 004°53'0 0.0
2017-Dec-07 12:30N 43°25' E 004°53'0 0.0
2017-Dec-07 12:00N 43°25' E 004°53'0 0.0
2017-Dec-07 11:30N 43°25' E 004°53'0 0.0
2017-Dec-07 11:00N 43°25' E 004°53'0 0.0
2017-Dec-07 10:30N 43°25' E 004°53'0 0.0
2017-Dec-07 10:00N 43°25' E 004°53'0 0.0
2017-Dec-07 09:30N 43°25' E 004°53'0 0.0
2017-Dec-07 09:00N 43°25' E 004°53'0 0.0
2017-Dec-07 08:30N 43°25' E 004°53'0 0.0
2017-Dec-07 07:57N 43°25' E 004°53'0 0.0
2017-Dec-07 07:30N 43°25' E 004°53'0 0.0
2017-Dec-07 07:00N 43°25' E 004°53'0 0.0
2017-Dec-07 06:30N 43°25' E 004°53'0 0.0
2017-Dec-07 06:00N 43°25' E 004°53'0 0.0
2017-Dec-07 05:30N 43°25' E 004°53'0 0.0
2017-Dec-07 05:00N 43°25' E 004°53'0 0.0
2017-Dec-07 04:30N 43°25' E 004°53'0 0.0
2017-Dec-07 04:00N 43°25' E 004°53'0 0.0
2017-Dec-07 03:30N 43°25' E 004°53'0 0.0
2017-Dec-07 03:00N 43°25' E 004°53'0 0.0
2017-Dec-07 02:30N 43°25' E 004°53'0 0.0
2017-Dec-07 01:57N 43°25' E 004°53'0 0.0
2017-Dec-07 01:30N 43°25' E 004°53'0 0.0
2017-Dec-07 01:00N 43°25' E 004°53'1 1.6
2017-Dec-07 00:31N 43°24' E 004°53'1 2.7
2017-Dec-06 23:59N 43°24' E 004°55'0 0.0
2017-Dec-06 23:29N 43°24' E 004°55'0 0.0
2017-Dec-06 22:53N 43°24' E 004°55'0 0.0
2017-Dec-06 22:29N 43°24' E 004°55'0 0.0
2017-Dec-06 21:56N 43°24' E 004°55'0 0.1
2017-Dec-06 21:29N 43°24' E 004°56'0 0.1
2017-Dec-06 20:59N 43°24' E 004°56'  

Dump ship's entire track history